createdAt,value
2018-12-05T00:00:59.341Z,0
2018-12-05T00:01:59.701Z,0
2018-12-05T00:02:59.290Z,0
2018-12-05T00:03:59.404Z,0
2018-12-05T00:04:59.322Z,0
2018-12-05T00:05:59.354Z,0
2018-12-05T00:06:59.389Z,0
2018-12-05T00:07:59.720Z,0
2018-12-05T00:08:59.435Z,0
2018-12-05T00:09:59.433Z,0
2018-12-05T00:10:59.468Z,0
2018-12-05T00:11:59.405Z,0
2018-12-05T00:12:59.507Z,0
2018-12-05T00:13:59.776Z,0
2018-12-05T00:14:59.386Z,0
2018-12-05T00:15:59.485Z,0
2018-12-05T00:16:59.473Z,0
2018-12-05T00:17:59.423Z,0
2018-12-05T00:18:59.545Z,0
2018-12-05T00:19:59.666Z,0
2018-12-05T00:20:59.300Z,0
2018-12-05T00:21:59.401Z,0
2018-12-05T00:22:59.395Z,0
2018-12-05T00:23:59.502Z,0
2018-12-05T00:24:59.425Z,0
2018-12-05T00:26:00.849Z,0
2018-12-05T00:30:30.706Z,0
2018-12-05T00:31:31.122Z,0
2018-12-05T00:32:30.760Z,0
2018-12-05T00:33:30.833Z,0
2018-12-05T00:34:30.839Z,0
2018-12-05T00:35:30.779Z,0
2018-12-05T00:36:31.093Z,0
2018-12-05T00:37:30.827Z,0
2018-12-05T00:38:30.799Z,0
2018-12-05T00:39:30.807Z,0
2018-12-05T00:40:30.848Z,0
2018-12-05T00:41:30.751Z,0
2018-12-05T00:42:31.062Z,0
2018-12-05T00:43:30.758Z,0
2018-12-05T00:44:30.815Z,0
2018-12-05T00:45:30.844Z,0
2018-12-05T00:46:30.792Z,0
2018-12-05T00:47:30.759Z,0
2018-12-05T00:48:31.133Z,0
2018-12-05T00:49:30.770Z,0
2018-12-05T00:50:30.808Z,0
2018-12-05T00:51:30.849Z,0
2018-12-05T00:52:30.809Z,0
2018-12-05T00:53:30.818Z,0
2018-12-05T00:54:34.769Z,0
2018-12-05T00:55:30.742Z,0
2018-12-05T00:56:30.819Z,0
2018-12-05T00:57:30.926Z,0
2018-12-05T00:58:30.759Z,0
2018-12-05T00:59:30.834Z,0
2018-12-05T01:00:33.158Z,0
2018-12-05T01:01:30.809Z,0
2018-12-05T01:02:30.818Z,0
2018-12-05T01:03:30.807Z,0
2018-12-05T01:04:31.037Z,0
2018-12-05T01:05:30.781Z,0
2018-12-05T01:06:31.148Z,0
2018-12-05T01:07:30.808Z,0
2018-12-05T01:08:30.824Z,0
2018-12-05T01:09:31.042Z,0
2018-12-05T01:10:30.941Z,0
2018-12-05T01:11:30.815Z,0
2018-12-05T01:12:31.058Z,0
2018-12-05T01:13:31.214Z,0
2018-12-05T01:14:30.835Z,0
2018-12-05T01:15:30.840Z,0
2018-12-05T01:16:30.846Z,0
2018-12-05T01:17:30.821Z,0
2018-12-05T01:18:30.819Z,0
2018-12-05T01:19:31.098Z,0
2018-12-05T01:20:30.844Z,0
2018-12-05T01:21:30.808Z,0
2018-12-05T01:22:30.812Z,0
2018-12-05T01:23:30.922Z,0
2018-12-05T01:24:31.251Z,0
2018-12-05T01:25:31.143Z,0
2018-12-05T01:26:30.915Z,0
2018-12-05T01:27:30.907Z,0
2018-12-05T01:28:30.855Z,0
2018-12-05T01:29:30.907Z,0
2018-12-05T01:30:31.158Z,0
2018-12-05T01:31:31.420Z,0
2018-12-05T01:32:30.882Z,0
2018-12-05T01:33:30.885Z,0
2018-12-05T01:34:30.867Z,0
2018-12-05T01:35:30.878Z,0
2018-12-05T01:36:30.895Z,0
2018-12-05T01:37:31.165Z,0
2018-12-05T01:38:30.896Z,0
2018-12-05T01:39:30.855Z,0
2018-12-05T01:40:30.901Z,0
2018-12-05T01:41:30.949Z,0
2018-12-05T01:42:31.224Z,0
2018-12-05T01:43:31.220Z,0
2018-12-05T01:44:45.810Z,0
2018-12-05T01:45:30.938Z,0
2018-12-05T01:46:30.953Z,0
2018-12-05T01:47:31.118Z,0
2018-12-05T01:48:31.333Z,0
2018-12-05T01:49:31.168Z,0
2018-12-05T01:50:30.973Z,0
2018-12-05T01:51:30.940Z,0
2018-12-05T01:52:30.916Z,0
2018-12-05T01:53:31.023Z,0
2018-12-05T01:54:31.203Z,0
2018-12-05T01:55:30.918Z,0
2018-12-05T01:56:30.877Z,0
2018-12-05T01:57:30.917Z,0
2018-12-05T01:58:30.923Z,0
2018-12-05T01:59:31.097Z,0
2018-12-05T02:00:31.272Z,0
2018-12-05T02:01:30.898Z,0
2018-12-05T02:02:30.914Z,0
2018-12-05T02:03:30.963Z,0
2018-12-05T02:04:30.889Z,0
2018-12-05T02:05:30.968Z,0
2018-12-05T02:06:31.248Z,0
2018-12-05T02:07:31.193Z,0
2018-12-05T02:08:30.944Z,0
2018-12-05T02:09:30.920Z,0
2018-12-05T02:10:30.946Z,0
2018-12-05T02:11:30.966Z,0
2018-12-05T02:12:31.048Z,0
2018-12-05T02:13:31.840Z,0
2018-12-05T02:14:31.070Z,0
2018-12-05T02:21:58.001Z,0
2018-12-05T02:22:10.004Z,0
2018-12-05T02:23:09.963Z,0
2018-12-05T02:24:10.128Z,0
2018-12-05T02:25:09.959Z,0
2018-12-05T02:26:09.949Z,0
2018-12-05T02:27:11.445Z,0
2018-12-05T02:28:10.159Z,0
2018-12-05T02:29:10.029Z,0
2018-12-05T02:30:09.999Z,0
2018-12-05T02:31:10.150Z,0
2018-12-05T02:32:09.965Z,0
2018-12-05T02:33:10.298Z,0
2018-12-05T02:34:10.043Z,0
2018-12-05T02:35:09.968Z,0
2018-12-05T02:36:10.033Z,0
2018-12-05T02:37:09.950Z,0
2018-12-05T02:38:10.091Z,0
2018-12-05T02:39:10.302Z,0
2018-12-05T02:40:10.324Z,0
2018-12-05T02:41:09.995Z,0
2018-12-05T02:42:10.095Z,0
2018-12-05T02:43:09.995Z,0
2018-12-05T02:44:10.003Z,0
2018-12-05T02:45:10.273Z,0
2018-12-05T02:46:10.294Z,0
2018-12-05T02:47:09.996Z,0
2018-12-05T02:48:10.062Z,0
2018-12-05T02:49:09.999Z,0
2018-12-05T02:50:10.001Z,0
2018-12-05T02:51:10.014Z,0
2018-12-05T02:52:10.291Z,0
2018-12-05T02:53:09.991Z,0
2018-12-05T02:54:09.989Z,0
2018-12-05T02:55:10.029Z,0
2018-12-05T02:56:10.027Z,0
2018-12-05T02:57:10.040Z,0
2018-12-05T02:58:10.325Z,0
2018-12-05T02:59:10.041Z,0
2018-12-05T03:00:10.020Z,0
2018-12-05T03:01:10.055Z,0
2018-12-05T03:02:10.002Z,0
2018-12-05T03:03:10.013Z,0
2018-12-05T03:04:10.297Z,0
2018-12-05T03:05:10.881Z,0
2018-12-05T03:06:10.047Z,0
2018-12-05T03:07:09.985Z,0
2018-12-05T03:08:10.042Z,0
2018-12-05T03:09:10.354Z,0
2018-12-05T03:10:10.247Z,0
2018-12-05T03:11:10.173Z,0
2018-12-05T03:12:10.024Z,0
2018-12-05T03:13:10.055Z,0
2018-12-05T03:14:10.087Z,0
2018-12-05T03:15:10.507Z,0
2018-12-05T03:16:10.301Z,0
2018-12-05T03:17:10.078Z,0
2018-12-05T03:18:10.025Z,0
2018-12-05T03:19:26.408Z,0
2018-12-05T03:20:11.165Z,0
2018-12-05T03:21:10.362Z,0
2018-12-05T03:22:10.416Z,0
2018-12-05T03:23:10.024Z,0
2018-12-05T03:24:10.087Z,0
2018-12-05T03:25:10.243Z,0
2018-12-05T03:26:10.035Z,0
2018-12-05T03:27:10.401Z,0
2018-12-05T03:28:10.354Z,0
2018-12-05T03:29:10.066Z,0
2018-12-05T03:30:10.192Z,0
2018-12-05T03:31:10.095Z,0
2018-12-05T03:32:10.205Z,0
2018-12-05T03:33:10.556Z,0
2018-12-05T03:34:10.519Z,0
2018-12-05T03:35:10.160Z,0
2018-12-05T03:36:10.153Z,0
2018-12-05T03:37:10.207Z,0
2018-12-05T03:38:10.127Z,0
2018-12-05T03:39:10.457Z,0
2018-12-05T03:40:10.704Z,0
2018-12-05T03:41:13.185Z,0
2018-12-05T03:42:10.163Z,0
2018-12-05T03:43:10.145Z,0
2018-12-05T03:44:10.185Z,0
2018-12-05T03:45:10.598Z,0
2018-12-05T03:46:10.169Z,0
2018-12-05T03:47:10.140Z,0
2018-12-05T03:48:10.131Z,0
2018-12-05T03:49:10.123Z,0
2018-12-05T03:50:10.159Z,0
2018-12-05T03:51:10.584Z,0
2018-12-05T03:52:10.171Z,0
2018-12-05T03:53:10.181Z,0
2018-12-05T03:54:10.109Z,0
2018-12-05T03:55:10.174Z,0
2018-12-05T03:56:10.122Z,0
2018-12-05T03:57:10.406Z,0
2018-12-05T03:58:10.091Z,0
2018-12-05T03:59:10.278Z,0
2018-12-05T04:00:10.227Z,0
2018-12-05T04:01:10.189Z,0
2018-12-05T04:02:10.194Z,0
2018-12-05T04:03:10.513Z,0
2018-12-05T04:04:10.197Z,0
2018-12-05T04:05:10.217Z,0
2018-12-05T04:06:10.189Z,0
2018-12-05T04:07:10.201Z,0
2018-12-05T04:08:10.208Z,0
2018-12-05T04:09:10.525Z,0
2018-12-05T04:10:10.563Z,0
2018-12-05T04:11:10.264Z,0
2018-12-05T04:12:10.261Z,0
2018-12-05T04:13:10.204Z,0
2018-12-05T04:14:10.278Z,0
2018-12-05T04:15:10.550Z,0
2018-12-05T04:16:10.492Z,0
2018-12-05T04:17:10.304Z,0
2018-12-05T04:18:10.237Z,0
2018-12-05T04:19:10.102Z,0
2018-12-05T04:20:10.215Z,0
2018-12-05T04:21:10.585Z,0
2018-12-05T04:22:10.161Z,0
2018-12-05T04:23:10.202Z,0
2018-12-05T04:24:10.182Z,0
2018-12-05T04:25:10.259Z,0
2018-12-05T04:26:10.569Z,0
2018-12-05T04:27:10.494Z,0
2018-12-05T04:28:11.111Z,0
2018-12-05T04:29:10.175Z,0
2018-12-05T04:30:13.659Z,0
2018-12-05T04:31:10.155Z,0
2018-12-05T04:32:10.166Z,0
2018-12-05T04:33:10.505Z,0
2018-12-05T04:34:10.170Z,0
2018-12-05T04:35:10.190Z,0
2018-12-05T04:36:10.367Z,0
2018-12-05T04:37:10.120Z,0
2018-12-05T04:38:10.167Z,0
2018-12-05T04:39:10.494Z,0
2018-12-05T04:40:10.202Z,0
2018-12-05T04:41:10.225Z,0
2018-12-05T04:42:10.254Z,0
2018-12-05T04:43:10.699Z,0
2018-12-05T04:44:10.750Z,0
2018-12-05T04:45:10.611Z,0
2018-12-05T04:46:10.253Z,0
2018-12-05T04:47:10.192Z,0
2018-12-05T04:48:10.265Z,0
2018-12-05T04:49:10.229Z,0
2018-12-05T04:50:10.184Z,0
2018-12-05T04:51:10.517Z,0
2018-12-05T04:52:10.288Z,0
2018-12-05T04:57:26.706Z,0
2018-12-05T04:57:39.055Z,0
2018-12-05T04:58:39.090Z,0
2018-12-05T04:59:38.981Z,0
2018-12-05T05:00:39.045Z,0
2018-12-05T05:01:39.115Z,0
2018-12-05T05:02:39.027Z,0
2018-12-05T05:03:39.403Z,0
2018-12-05T05:04:39.023Z,0
2018-12-05T05:05:39.021Z,0
2018-12-05T05:06:44.565Z,0
2018-12-05T05:11:13.732Z,0
2018-12-05T05:12:13.572Z,0
2018-12-05T05:13:13.502Z,0
2018-12-05T05:14:13.555Z,0
2018-12-05T05:15:13.560Z,0
2018-12-05T05:16:13.508Z,0
2018-12-05T05:17:13.896Z,0
2018-12-05T05:18:13.613Z,0
2018-12-05T05:19:13.586Z,0
2018-12-05T05:20:14.801Z,0
2018-12-05T05:21:13.598Z,0
2018-12-05T05:22:13.855Z,0
2018-12-05T05:23:14.016Z,0
2018-12-05T05:24:13.614Z,0
2018-12-05T05:25:13.654Z,0
2018-12-05T05:26:13.622Z,0
2018-12-05T05:27:13.519Z,0
2018-12-05T05:28:13.907Z,0
2018-12-05T05:29:13.639Z,0
2018-12-05T05:30:13.646Z,0
2018-12-05T05:31:13.578Z,0
2018-12-05T05:32:13.598Z,0
2018-12-05T05:33:13.559Z,0
2018-12-05T05:34:14.053Z,0
2018-12-05T05:35:13.566Z,0
2018-12-05T05:36:13.582Z,0
2018-12-05T05:37:13.557Z,0
2018-12-05T05:38:13.534Z,0
2018-12-05T05:39:13.601Z,0
2018-12-05T05:40:13.991Z,0
2018-12-05T05:41:13.685Z,0
2018-12-05T05:42:13.592Z,0
2018-12-05T05:43:13.598Z,0
2018-12-05T05:44:13.611Z,0
2018-12-05T05:45:13.600Z,0
2018-12-05T05:46:13.901Z,0
2018-12-05T05:47:13.593Z,0
2018-12-05T05:48:13.648Z,0
2018-12-05T05:51:20.736Z,0
2018-12-05T05:51:32.767Z,0
2018-12-05T05:52:36.606Z,0
2018-12-05T05:53:32.766Z,0
2018-12-05T05:54:32.860Z,0
2018-12-05T05:55:32.696Z,0
2018-12-05T05:56:32.739Z,0
2018-12-05T05:57:32.756Z,0
2018-12-05T05:58:34.114Z,0
2018-12-05T05:59:32.812Z,0
2018-12-05T06:00:32.755Z,0
2018-12-05T06:01:32.769Z,0
2018-12-05T06:02:32.811Z,0
2018-12-05T06:03:32.768Z,0
2018-12-05T06:04:34.059Z,0
2018-12-05T06:05:32.943Z,0
2018-12-05T06:06:32.693Z,0
2018-12-05T06:07:32.878Z,0
2018-12-05T06:08:32.768Z,0
2018-12-05T06:09:32.730Z,0
2018-12-05T06:10:34.124Z,0
2018-12-05T06:11:32.706Z,0
2018-12-05T06:12:32.746Z,0
2018-12-05T06:13:32.858Z,0
2018-12-05T06:14:32.716Z,0
2018-12-05T06:15:32.804Z,0
2018-12-05T06:16:33.117Z,0
2018-12-05T06:17:32.947Z,0
2018-12-05T06:18:32.720Z,0
2018-12-05T06:19:32.932Z,0
2018-12-05T06:20:32.778Z,0
2018-12-05T06:21:32.836Z,0
2018-12-05T06:22:35.090Z,0
2018-12-05T06:23:32.911Z,0
2018-12-05T06:24:33.704Z,0
2018-12-05T06:25:32.788Z,0
2018-12-05T06:26:32.796Z,0
2018-12-05T06:27:32.805Z,0
2018-12-05T06:28:33.188Z,0
2018-12-05T06:29:32.885Z,0
2018-12-05T06:30:32.787Z,0
2018-12-05T06:31:32.978Z,0
2018-12-05T06:32:32.798Z,0
2018-12-05T06:33:33.791Z,4
2018-12-05T06:34:35.113Z,0
2018-12-05T06:35:32.899Z,0
2018-12-05T06:36:32.852Z,0
2018-12-05T06:37:32.841Z,4
2018-12-05T06:38:32.760Z,0
2018-12-05T06:39:32.912Z,0
2018-12-05T06:40:34.202Z,4
2018-12-05T06:41:32.842Z,0
2018-12-05T06:42:32.776Z,4
2018-12-05T06:43:33.054Z,0
2018-12-05T06:44:32.879Z,4
2018-12-05T06:45:32.760Z,4
2018-12-05T06:46:34.224Z,4
2018-12-05T06:47:33.580Z,4
2018-12-05T06:48:33.002Z,4
2018-12-05T06:49:32.980Z,4
2018-12-05T06:50:32.817Z,8
2018-12-05T06:51:33.029Z,8
2018-12-05T06:52:34.302Z,8
2018-12-05T06:53:32.885Z,8
2018-12-05T06:54:32.910Z,12
2018-12-05T06:55:38.901Z,12
2018-12-05T06:56:32.928Z,8
2018-12-05T06:57:33.001Z,12
2018-12-05T06:58:34.310Z,12
2018-12-05T06:59:32.920Z,12
2018-12-05T07:00:33.052Z,12
2018-12-05T07:01:32.925Z,16
2018-12-05T07:02:32.878Z,16
2018-12-05T07:03:32.949Z,16
2018-12-05T07:04:33.241Z,16
2018-12-05T07:05:33.292Z,20
2018-12-05T07:06:32.924Z,20
2018-12-05T07:07:32.941Z,20
2018-12-05T07:08:32.890Z,24
2018-12-05T07:09:32.934Z,24
2018-12-05T07:10:35.329Z,28
2018-12-05T07:11:32.994Z,28
2018-12-05T07:12:32.927Z,28
2018-12-05T07:13:33.009Z,28
2018-12-05T07:14:33.474Z,28
2018-12-05T07:15:33.087Z,32
2018-12-05T07:16:33.320Z,32
2018-12-05T07:17:32.963Z,32
2018-12-05T07:18:34.094Z,36
2018-12-05T07:19:32.960Z,36
2018-12-05T07:20:32.980Z,36
2018-12-05T07:21:33.088Z,40
2018-12-05T07:22:33.388Z,36
2018-12-05T07:23:32.937Z,36
2018-12-05T07:24:32.852Z,40
2018-12-05T07:25:32.808Z,40
2018-12-05T07:26:32.925Z,40
2018-12-05T07:27:32.937Z,40
2018-12-05T07:28:33.296Z,44
2018-12-05T07:29:32.961Z,44
2018-12-05T07:30:37.940Z,44
2018-12-05T07:31:33.060Z,48
2018-12-05T07:32:32.957Z,52
2018-12-05T07:33:32.862Z,56
2018-12-05T07:34:33.286Z,60
2018-12-05T07:35:44.064Z,64
2018-12-05T07:36:33.648Z,68
2018-12-05T07:37:38.871Z,76
2018-12-05T07:42:50.417Z,116
2018-12-05T07:43:02.516Z,116
2018-12-05T07:44:07.919Z,116
2018-12-05T07:45:02.546Z,124
2018-12-05T07:46:02.429Z,132
2018-12-05T07:47:02.851Z,132
2018-12-05T07:48:02.487Z,124
2018-12-05T07:49:02.463Z,116
2018-12-05T07:50:02.497Z,124
2018-12-05T07:51:02.493Z,140
2018-12-05T07:52:02.531Z,204
2018-12-05T07:53:02.827Z,816
2018-12-05T07:54:02.604Z,404
2018-12-05T07:55:02.525Z,120
2018-12-05T07:56:02.529Z,124
2018-12-05T07:57:02.609Z,136
2018-12-05T07:58:02.530Z,132
2018-12-05T07:59:02.837Z,128
2018-12-05T08:00:02.559Z,116
2018-12-05T08:01:02.539Z,116
2018-12-05T08:02:02.518Z,104
2018-12-05T08:03:02.527Z,108
2018-12-05T08:04:02.543Z,108
2018-12-05T08:05:03.057Z,120
2018-12-05T08:06:03.461Z,124
2018-12-05T08:07:02.559Z,128
2018-12-05T08:08:02.544Z,140
2018-12-05T08:09:02.666Z,152
2018-12-05T08:10:02.521Z,160
2018-12-05T08:11:02.936Z,168
2018-12-05T08:12:03.350Z,172
2018-12-05T08:13:03.564Z,172
2018-12-05T08:14:02.686Z,176
2018-12-05T08:15:02.622Z,180
2018-12-05T08:16:02.690Z,188
2018-12-05T08:17:02.875Z,200
2018-12-05T08:18:02.537Z,216
2018-12-05T08:19:02.546Z,200
2018-12-05T08:20:02.543Z,192
2018-12-05T14:38:18.181Z,40
2018-12-05T14:39:17.880Z,32
2018-12-05T14:40:17.909Z,32
2018-12-05T14:41:17.904Z,32
2018-12-05T14:42:17.961Z,32
2018-12-05T14:47:34.786Z,24
2018-12-05T14:47:47.207Z,24
2018-12-05T14:48:47.074Z,20
2018-12-05T14:49:46.799Z,20
2018-12-05T14:50:46.779Z,20
2018-12-05T14:51:47.197Z,20
2018-12-05T14:52:47.001Z,20
2018-12-05T14:53:46.873Z,16
2018-12-05T14:54:46.914Z,16
2018-12-05T14:55:46.855Z,16
2018-12-05T14:56:46.853Z,12
2018-12-05T14:57:47.405Z,12
2018-12-05T14:58:46.834Z,12
2018-12-05T14:59:46.871Z,12
2018-12-05T15:00:46.912Z,12
2018-12-05T15:01:46.890Z,8
2018-12-05T15:02:46.864Z,8
2018-12-05T15:03:47.130Z,8
2018-12-05T15:04:46.938Z,4
2018-12-05T15:05:47.190Z,4
2018-12-05T15:06:47.463Z,8
2018-12-05T15:07:46.808Z,8
2018-12-05T15:08:55.813Z,4
2018-12-05T15:09:47.213Z,4
2018-12-05T15:10:47.154Z,4
2018-12-05T15:11:46.958Z,4
2018-12-05T15:12:47.130Z,4
2018-12-05T15:13:47.213Z,0
2018-12-05T15:14:46.874Z,4
2018-12-05T15:15:47.181Z,0
2018-12-05T15:16:46.817Z,4
2018-12-05T15:17:46.791Z,4
2018-12-05T15:18:46.790Z,0
2018-12-05T15:19:46.817Z,0
2018-12-05T15:20:46.736Z,0
2018-12-05T15:21:48.324Z,0
2018-12-05T15:22:46.865Z,4
2018-12-05T15:23:46.842Z,4
2018-12-05T15:24:46.864Z,4
2018-12-05T15:25:46.840Z,4
2018-12-05T15:26:46.949Z,0
2018-12-05T15:27:47.227Z,0
2018-12-05T15:28:47.171Z,0
2018-12-05T15:29:46.841Z,0
2018-12-05T15:30:47.004Z,0
2018-12-05T15:31:47.615Z,0
2018-12-05T15:32:46.862Z,0
2018-12-05T15:33:46.964Z,0
2018-12-05T15:34:46.943Z,0
2018-12-05T15:35:47.180Z,0
2018-12-05T15:36:47.015Z,0
2018-12-05T15:37:46.987Z,0
2018-12-05T15:38:48.943Z,0
2018-12-05T15:39:47.238Z,0
2018-12-05T15:40:47.150Z,0
2018-12-05T15:41:46.911Z,0
2018-12-05T15:42:47.536Z,0
2018-12-05T15:43:46.886Z,0
2018-12-05T15:44:47.731Z,0
2018-12-05T15:45:47.353Z,0
2018-12-05T15:46:47.356Z,0
2018-12-05T15:47:47.089Z,0
2018-12-05T15:48:47.032Z,0
2018-12-05T15:49:47.028Z,0
2018-12-05T15:50:46.934Z,0
2018-12-05T15:51:46.886Z,0
2018-12-05T15:52:47.330Z,0
2018-12-05T15:53:47.009Z,0
2018-12-05T15:54:46.998Z,0
2018-12-05T15:55:47.117Z,0
2018-12-05T15:56:46.844Z,0
2018-12-05T15:57:47.194Z,0
2018-12-05T15:58:47.169Z,0
2018-12-05T15:59:46.964Z,0
2018-12-05T16:00:47.913Z,0
2018-12-05T16:01:47.087Z,0
2018-12-05T16:02:47.101Z,0
2018-12-05T16:03:52.005Z,0
2018-12-05T16:04:47.168Z,0
2018-12-05T16:05:47.049Z,0
2018-12-05T16:06:47.078Z,0
2018-12-05T16:07:47.186Z,0
2018-12-05T16:08:47.026Z,0
2018-12-05T16:09:47.239Z,0
2018-12-05T16:10:47.447Z,0
2018-12-05T16:11:48.096Z,0
2018-12-05T16:12:47.099Z,0
2018-12-05T16:13:47.238Z,0
2018-12-05T16:14:47.029Z,0
2018-12-05T16:15:47.395Z,0
2018-12-05T16:16:46.972Z,0
2018-12-05T16:17:47.050Z,0
2018-12-05T16:18:47.108Z,0
2018-12-05T16:19:47.450Z,0
2018-12-05T16:20:47.377Z,0
2018-12-05T16:21:47.446Z,0
2018-12-05T16:22:47.368Z,0
2018-12-05T16:23:47.049Z,0
2018-12-05T16:24:47.058Z,0
2018-12-05T16:25:47.070Z,0
2018-12-05T16:26:47.069Z,0
2018-12-05T16:27:47.503Z,0
2018-12-05T16:28:47.331Z,0
2018-12-05T16:29:46.956Z,0
2018-12-05T16:30:47.098Z,0
2018-12-05T16:31:47.077Z,0
2018-12-05T16:32:47.128Z,0
2018-12-05T16:33:47.853Z,0
2018-12-05T16:34:47.366Z,0
2018-12-05T16:35:47.181Z,0
2018-12-05T16:36:47.298Z,0
2018-12-05T16:37:47.219Z,0
2018-12-05T16:38:47.085Z,0
2018-12-05T16:39:47.329Z,0
2018-12-05T16:40:47.411Z,0
2018-12-05T16:41:48.626Z,0
2018-12-05T16:42:47.125Z,0
2018-12-05T16:43:46.978Z,0
2018-12-05T16:44:47.058Z,0
2018-12-05T16:45:47.632Z,0
2018-12-05T16:46:46.986Z,0
2018-12-05T16:47:47.115Z,0
2018-12-05T16:48:47.113Z,0
2018-12-05T16:49:49.867Z,0
2018-12-05T16:50:47.517Z,0
2018-12-05T16:51:47.486Z,0
2018-12-05T16:52:47.078Z,0
2018-12-05T16:53:47.198Z,0
2018-12-05T16:54:47.210Z,0
2018-12-05T16:55:47.609Z,0
2018-12-05T16:56:47.434Z,0
2018-12-05T16:57:47.826Z,0
2018-12-05T16:58:48.199Z,0
2018-12-05T16:59:47.406Z,0
2018-12-05T17:00:47.984Z,0
2018-12-05T17:01:47.624Z,0
2018-12-05T17:02:47.451Z,0
2018-12-05T17:03:47.329Z,0
2018-12-05T17:04:47.668Z,0
2018-12-05T17:05:47.077Z,0
2018-12-05T17:06:48.810Z,0
2018-12-05T17:07:47.820Z,0
2018-12-05T17:08:48.311Z,0
2018-12-05T17:09:48.109Z,0
2018-12-05T17:10:48.391Z,0
2018-12-05T17:11:47.847Z,0
2018-12-05T17:12:48.417Z,0
2018-12-05T17:13:47.996Z,0
2018-12-05T17:14:47.467Z,0
2018-12-05T17:15:48.031Z,0
2018-12-05T17:16:48.205Z,0
2018-12-05T17:17:47.946Z,0
2018-12-05T17:18:47.625Z,0
2018-12-05T17:19:49.019Z,0
2018-12-05T17:20:47.964Z,0
2018-12-05T17:21:48.984Z,0
2018-12-05T17:22:47.274Z,0
2018-12-05T17:23:48.181Z,0
2018-12-05T17:24:47.476Z,0
2018-12-05T17:25:47.507Z,0
2018-12-05T17:26:47.334Z,0
2018-12-05T17:28:47.734Z,0
2018-12-05T17:29:48.089Z,0
2018-12-05T17:30:48.564Z,0
2018-12-05T17:31:48.359Z,0
2018-12-05T17:33:37.747Z,0
2018-12-05T17:33:52.573Z,0
2018-12-05T17:34:51.295Z,0
2018-12-05T17:35:51.474Z,0
2018-12-05T17:36:51.316Z,0
2018-12-05T17:37:51.349Z,0
2018-12-05T17:38:51.641Z,0
2018-12-05T17:39:51.085Z,0
2018-12-05T17:40:51.392Z,0
2018-12-05T17:41:51.587Z,0
2018-12-05T17:42:51.651Z,0
2018-12-05T17:43:51.129Z,0
2018-12-05T17:44:50.725Z,0
2018-12-05T17:45:51.395Z,0
2018-12-05T17:46:51.388Z,0
2018-12-05T17:47:51.124Z,0
2018-12-05T17:48:51.203Z,0
2018-12-05T17:49:50.838Z,0
2018-12-05T17:50:51.786Z,0
2018-12-05T17:51:50.725Z,0
2018-12-05T17:52:50.809Z,0
2018-12-05T17:53:50.921Z,0
2018-12-05T17:54:50.304Z,0
2018-12-05T17:55:51.190Z,0
2018-12-05T17:56:51.515Z,0
2018-12-05T17:57:51.421Z,0
2018-12-05T17:58:51.146Z,0
2018-12-05T17:59:51.039Z,0
2018-12-05T18:00:51.365Z,0
2018-12-05T18:01:51.026Z,0
2018-12-05T18:02:51.417Z,0
2018-12-05T18:03:51.559Z,0
2018-12-05T18:04:51.088Z,0
2018-12-05T18:05:51.363Z,0
2018-12-05T18:06:51.369Z,0
2018-12-05T18:07:51.183Z,0
2018-12-05T18:08:50.582Z,0
2018-12-05T18:09:51.455Z,0
2018-12-05T18:10:51.468Z,0
2018-12-05T18:11:51.598Z,0
2018-12-05T18:12:50.968Z,0
2018-12-05T18:13:51.143Z,0
2018-12-05T18:14:51.637Z,0
2018-12-05T18:15:51.684Z,0
2018-12-05T18:16:51.254Z,0
2018-12-05T18:17:51.489Z,0
2018-12-05T18:18:51.543Z,0
2018-12-05T18:19:51.324Z,0
2018-12-05T18:20:51.532Z,0
2018-12-05T18:21:52.136Z,0
2018-12-05T18:22:51.887Z,0
2018-12-05T18:23:51.429Z,0
2018-12-05T18:24:51.781Z,0
2018-12-05T18:25:51.925Z,0
2018-12-05T18:26:51.657Z,0
2018-12-05T18:27:51.501Z,0
2018-12-05T18:28:52.442Z,0
2018-12-05T18:29:51.481Z,0
2018-12-05T18:30:51.526Z,0
2018-12-05T18:31:53.086Z,0
2018-12-05T18:32:51.672Z,0
2018-12-05T18:33:51.591Z,0
2018-12-05T18:34:51.613Z,0
2018-12-05T18:35:51.582Z,0
2018-12-05T18:36:51.890Z,0
2018-12-05T18:37:52.035Z,0
2018-12-05T18:38:51.786Z,0
2018-12-05T18:39:51.702Z,0
2018-12-05T18:40:51.682Z,0
2018-12-05T18:41:51.776Z,0
2018-12-05T18:42:51.763Z,0
2018-12-05T18:43:52.215Z,0
2018-12-05T18:44:51.750Z,0
2018-12-05T18:45:51.669Z,0
2018-12-05T18:46:51.793Z,0
2018-12-05T18:47:51.944Z,0
2018-12-05T18:48:51.841Z,0
2018-12-05T18:49:52.070Z,0
2018-12-05T18:50:51.725Z,0
2018-12-05T18:51:51.673Z,0
2018-12-05T18:52:51.826Z,0
2018-12-05T18:53:51.790Z,0
2018-12-05T18:54:51.634Z,0
2018-12-05T18:55:51.999Z,0
2018-12-05T18:56:51.787Z,0
2018-12-05T18:57:51.658Z,0
2018-12-05T18:58:51.940Z,0
2018-12-05T18:59:51.865Z,0
2018-12-05T19:00:51.795Z,0
2018-12-05T19:01:52.046Z,0
2018-12-05T19:02:51.855Z,0
2018-12-05T19:03:51.865Z,0
2018-12-05T19:04:51.811Z,0
2018-12-05T19:05:51.824Z,0
2018-12-05T19:06:51.839Z,0
2018-12-05T19:07:52.209Z,0
2018-12-05T19:08:52.413Z,0
2018-12-05T19:09:51.835Z,0
2018-12-05T19:10:53.030Z,0
2018-12-05T19:11:51.943Z,0
2018-12-05T19:12:52.758Z,0
2018-12-05T19:13:52.208Z,0
2018-12-05T19:14:51.746Z,0
2018-12-05T19:15:53.206Z,0
2018-12-05T19:16:51.963Z,0
2018-12-05T19:17:52.488Z,0
2018-12-05T19:18:51.881Z,0
2018-12-05T19:19:52.166Z,0
2018-12-05T19:20:51.793Z,0
2018-12-05T19:21:51.975Z,0
2018-12-05T19:22:52.961Z,0
2018-12-05T19:23:53.721Z,0
2018-12-05T19:24:51.882Z,0
2018-12-05T19:25:51.775Z,0
2018-12-05T19:26:52.467Z,0
2018-12-05T19:27:51.905Z,0
2018-12-05T19:28:52.315Z,0
2018-12-05T19:29:51.877Z,0
2018-12-05T19:30:51.948Z,0
2018-12-05T19:31:52.237Z,0
2018-12-05T19:32:51.872Z,0
2018-12-05T19:33:52.631Z,0
2018-12-05T19:34:54.405Z,0
2018-12-05T19:35:51.838Z,0
2018-12-05T19:36:51.884Z,0
2018-12-05T19:37:51.881Z,0
2018-12-05T19:38:51.950Z,0
2018-12-05T19:39:52.003Z,0
2018-12-05T19:40:52.346Z,0
2018-12-05T19:41:51.962Z,0
2018-12-05T19:42:51.897Z,0
2018-12-05T19:43:52.523Z,0
2018-12-05T19:44:51.979Z,0
2018-12-05T19:45:53.587Z,0
2018-12-05T19:46:52.347Z,0
2018-12-05T19:47:52.043Z,0
2018-12-05T19:48:52.033Z,0
2018-12-05T19:49:52.327Z,0
2018-12-05T19:50:52.009Z,0
2018-12-05T19:51:52.180Z,0
2018-12-05T19:52:52.054Z,0
2018-12-05T19:53:52.860Z,0
2018-12-05T19:54:52.000Z,0
2018-12-05T19:55:52.434Z,0
2018-12-05T19:56:52.012Z,0
2018-12-05T19:57:51.940Z,0
2018-12-05T19:59:00.649Z,0
2018-12-05T19:59:52.626Z,0
2018-12-05T20:00:52.015Z,0
2018-12-05T20:01:52.385Z,0
2018-12-05T20:02:52.026Z,0
2018-12-05T20:03:53.190Z,0
2018-12-05T20:05:01.625Z,0
2018-12-05T20:05:53.177Z,0
2018-12-05T20:06:52.104Z,0
2018-12-05T20:07:52.477Z,0
2018-12-05T20:08:52.164Z,0
2018-12-05T20:09:52.126Z,0
2018-12-05T20:10:52.315Z,0
2018-12-05T20:11:52.661Z,0
2018-12-05T20:12:52.092Z,0
2018-12-05T20:13:52.766Z,0
2018-12-05T20:14:53.329Z,0
2018-12-05T20:15:52.757Z,0
2018-12-05T20:16:54.578Z,0
2018-12-05T20:17:53.310Z,0
2018-12-05T20:18:58.396Z,0
2018-12-05T20:19:52.555Z,0
2018-12-05T20:20:52.137Z,0
2018-12-05T20:21:52.041Z,0
2018-12-05T20:22:52.435Z,0
2018-12-05T20:23:52.115Z,0
2018-12-05T20:24:52.898Z,0
2018-12-05T20:25:51.982Z,0
2018-12-05T20:26:52.061Z,0
2018-12-05T20:27:53.701Z,0
2018-12-05T20:28:52.304Z,0
2018-12-05T20:29:51.915Z,0
2018-12-05T20:30:52.379Z,0
2018-12-05T20:31:51.990Z,0
2018-12-05T20:32:52.217Z,0
2018-12-05T20:33:52.298Z,0
2018-12-05T20:34:52.719Z,0
2018-12-05T20:35:52.075Z,0
2018-12-05T20:36:52.640Z,0
2018-12-05T20:37:53.615Z,0
2018-12-05T20:38:52.130Z,0
2018-12-05T20:39:52.057Z,0
2018-12-05T20:40:52.047Z,0
2018-12-05T20:41:52.083Z,0
2018-12-05T20:43:42.277Z,0
2018-12-05T20:43:56.521Z,0
2018-12-05T20:44:56.577Z,0
2018-12-05T20:45:59.286Z,0
2018-12-05T20:46:57.033Z,0
2018-12-05T20:47:57.113Z,0
2018-12-05T20:48:56.624Z,0
2018-12-05T20:49:58.300Z,0
2018-12-05T20:50:56.255Z,0
2018-12-05T20:51:56.553Z,0
2018-12-05T20:52:56.240Z,0
2018-12-05T20:53:56.982Z,0
2018-12-05T20:54:56.651Z,0
2018-12-05T20:55:56.844Z,0
2018-12-05T20:57:07.786Z,0
2018-12-05T20:57:58.400Z,0
2018-12-05T20:59:06.912Z,0
2018-12-05T20:59:56.353Z,0
2018-12-05T21:00:56.375Z,0
2018-12-05T21:01:56.476Z,0
2018-12-05T21:02:57.257Z,0
2018-12-05T21:03:56.343Z,0
2018-12-05T21:04:56.541Z,0
2018-12-05T21:05:56.713Z,0
2018-12-05T21:06:56.486Z,0
2018-12-05T21:07:56.361Z,0
2018-12-05T21:08:56.479Z,0
2018-12-05T21:09:56.326Z,0
2018-12-05T21:10:56.577Z,0
2018-12-05T21:16:13.757Z,0
2018-12-05T21:16:28.814Z,0
2018-12-05T21:19:35.154Z,0
2018-12-05T21:19:49.514Z,0
2018-12-05T21:20:49.529Z,0
2018-12-05T21:21:49.468Z,0
2018-12-05T21:22:56.938Z,0
2018-12-05T21:23:49.286Z,0
2018-12-05T21:24:49.216Z,0
2018-12-05T21:25:49.186Z,0
2018-12-05T21:26:49.234Z,0
2018-12-05T21:27:51.067Z,0
2018-12-05T21:28:49.188Z,0
2018-12-05T21:36:15.080Z,0
2018-12-05T21:36:29.723Z,0